Time;durP1;ratioP1;P1;durP2;ratioP2;P2;SDS_P1;SDS_P2;PMS_P1;PMS_P2;Temp;Humidity;BMP_temperature;BMP_pressure;BME280_temperature;BME280_humidity;BME280_pressure;Samples;Min_cycle;Max_cycle;Signal;HPM_P1;HPM_P2
2022/04/24 00:02:23;;;;;;;13.43;12.03;;;14.80;99.20;;;;;;5008386;28;21033;-74
2022/04/24 00:04:49;;;;;;;14.97;12.53;;;14.90;99.00;;;;;;5012677;28;20556;-72
2022/04/24 00:07:15;;;;;;;15.37;12.93;;;14.90;99.20;;;;;;5015514;28;20317;-73
2022/04/24 00:09:41;;;;;;;15.17;13.17;;;15.00;99.00;;;;;;5011076;28;20700;-72
2022/04/24 00:12:08;;;;;;;13.33;11.70;;;14.90;98.90;;;;;;5006661;28;20466;-71
2022/04/24 00:14:33;;;;;;;15.10;12.90;;;14.90;99.20;;;;;;5010283;28;20197;-72
2022/04/24 00:16:59;;;;;;;16.30;12.10;;;14.90;99.10;;;;;;5008844;28;20431;-72
2022/04/24 00:19:25;;;;;;;14.20;12.80;;;14.80;99.20;;;;;;5007885;28;20787;-74
2022/04/24 00:21:50;;;;;;;13.47;12.17;;;14.80;99.30;;;;;;5005673;28;20280;-74
2022/04/24 00:24:16;;;;;;;13.30;11.47;;;14.80;99.30;;;;;;5008373;28;20212;-72
2022/04/24 00:26:41;;;;;;;13.90;12.50;;;14.90;99.30;;;;;;5010508;28;20561;-72
2022/04/24 00:29:08;;;;;;;13.23;11.73;;;15.00;99.10;;;;;;5009070;28;20176;-74
2022/04/24 00:31:33;;;;;;;15.53;13.50;;;14.80;99.10;;;;;;5005738;28;20209;-74
2022/04/24 00:33:59;;;;;;;14.37;12.90;;;14.80;99.30;;;;;;5006725;28;20435;-73
2022/04/24 00:36:25;;;;;;;15.03;12.33;;;14.80;99.30;;;;;;5006445;28;20703;-72
2022/04/24 00:38:50;;;;;;;15.43;12.00;;;14.90;99.30;;;;;;5006797;28;20185;-72
2022/04/24 00:41:16;;;;;;;13.60;12.17;;;14.70;99.40;;;;;;5004497;28;20200;-74
2022/04/24 00:43:48;;;;;;;15.40;12.63;;;14.60;99.80;;;;;;5008871;28;20248;-74
2022/04/24 00:46:25;;;;;;;12.50;11.10;;;14.50;99.70;;;;;;5007697;28;21200;-73
2022/04/24 00:48:53;;;;;;;12.83;11.50;;;14.60;99.70;;;;;;5006482;28;20428;-72
2022/04/24 00:51:19;;;;;;;14.10;12.40;;;14.60;99.70;;;;;;5008423;28;20428;-73
2022/04/24 00:53:45;;;;;;;13.17;11.40;;;14.50;99.90;;;;;;5006493;28;20848;-72
2022/04/24 00:56:10;;;;;;;13.60;11.67;;;14.60;99.90;;;;;;5004838;28;20268;-72
2022/04/24 00:58:36;;;;;;;13.90;12.60;;;14.50;99.80;;;;;;5011266;28;20186;-73
2022/04/24 01:01:02;;;;;;;13.33;11.97;;;14.60;99.80;;;;;;5006901;28;20173;-72
2022/04/24 01:03:28;;;;;;;13.10;11.53;;;14.40;99.80;;;;;;5006456;28;20508;-73
2022/04/24 01:05:55;;;;;;;15.57;12.53;;;14.40;99.90;;;;;;5007674;28;20516;-73
2022/04/24 01:08:21;;;;;;;13.60;12.17;;;14.30;99.90;;;;;;5006859;28;20467;-73
2022/04/24 01:10:46;;;;;;;13.83;12.47;;;14.50;99.90;;;;;;5007064;28;20502;-73
2022/04/24 01:13:15;;;;;;;12.30;11.00;;;14.60;99.90;;;;;;5007193;28;20202;-74
2022/04/24 01:15:40;;;;;;;11.37;10.20;;;14.60;99.90;;;;;;5012793;28;20218;-74
2022/04/24 01:18:08;;;;;;;12.00;10.77;;;14.60;99.80;;;;;;5008014;28;20440;-73
2022/04/24 01:20:34;;;;;;;13.00;11.17;;;14.50;99.90;;;;;;5005981;28;20185;-75
2022/04/24 01:23:00;;;;;;;12.67;11.37;;;14.50;99.90;;;;;;5009643;28;20465;-74
2022/04/24 01:25:25;;;;;;;13.10;11.43;;;14.60;99.90;;;;;;5012181;28;20473;-74
2022/04/24 01:27:51;;;;;;;12.07;10.87;;;14.40;99.90;;;;;;5012222;28;20219;-72
2022/04/24 01:30:16;;;;;;;14.00;11.97;;;14.50;99.90;;;;;;5007798;28;20175;-75
2022/04/24 01:32:42;;;;;;;12.57;11.27;;;14.60;99.90;;;;;;5009491;28;20208;-73
2022/04/24 01:35:08;;;;;;;13.80;12.13;;;14.30;99.90;;;;;;5005915;28;20181;-73
2022/04/24 01:37:34;;;;;;;16.67;10.90;;;14.40;99.90;;;;;;5009179;28;20200;-73
2022/04/24 01:39:59;;;;;;;13.33;11.70;;;14.30;99.90;;;;;;5007120;28;20227;-73
2022/04/24 01:42:25;;;;;;;12.30;11.00;;;14.50;99.90;;;;;;5008647;28;20462;-72
2022/04/24 01:44:51;;;;;;;13.57;11.10;;;14.50;99.90;;;;;;5014982;28;20199;-72
2022/04/24 01:47:17;;;;;;;13.80;11.30;;;14.40;99.90;;;;;;5014320;28;20351;-71
2022/04/24 01:49:42;;;;;;;17.70;11.53;;;14.40;99.90;;;;;;5009920;28;20185;-72
2022/04/24 01:52:08;;;;;;;14.27;12.53;;;14.60;99.90;;;;;;5011836;28;20208;-74
2022/04/24 01:54:35;;;;;;;12.93;11.53;;;14.50;99.90;;;;;;5010267;28;20188;-73
2022/04/24 01:57:00;;;;;;;14.17;11.67;;;14.60;99.90;;;;;;5006452;28;20467;-73
2022/04/24 01:59:26;;;;;;;12.77;11.47;;;14.60;99.90;;;;;;5013547;28;20439;-72
2022/04/24 02:01:52;;;;;;;16.00;11.47;;;14.60;99.90;;;;;;5006771;28;20294;-73
2022/04/24 02:04:23;;;;;;;14.50;12.17;;;14.60;99.90;;;;;;5012298;28;21273;-72
2022/04/24 02:06:49;;;;;;;12.83;11.53;;;14.60;99.90;;;;;;5014055;28;20667;-72
2022/04/24 02:09:15;;;;;;;12.97;11.50;;;14.30;99.90;;;;;;5012619;28;20428;-73
2022/04/24 02:11:40;;;;;;;13.57;12.20;;;14.50;99.90;;;;;;5009268;28;21318;-73
2022/04/24 02:14:06;;;;;;;13.27;11.87;;;14.40;99.90;;;;;;5013025;28;20172;-73
2022/04/24 02:16:32;;;;;;;14.70;12.43;;;14.50;99.90;;;;;;5008246;28;20852;-74
2022/04/24 02:18:57;;;;;;;12.73;10.87;;;14.50;99.90;;;;;;5008992;28;20177;-73
2022/04/24 02:21:23;;;;;;;13.30;11.80;;;14.70;99.90;;;;;;5007442;28;20201;-72
2022/04/24 02:23:49;;;;;;;13.30;11.90;;;14.40;99.90;;;;;;5008318;28;20189;-74
2022/04/24 02:26:15;;;;;;;16.47;12.13;;;14.60;99.90;;;;;;5006425;28;20184;-72
2022/04/24 02:28:41;;;;;;;13.30;11.90;;;14.50;99.90;;;;;;5007287;28;20458;-73
2022/04/24 02:31:06;;;;;;;14.40;12.47;;;14.60;99.90;;;;;;5007981;28;20247;-72
2022/04/24 02:33:32;;;;;;;11.93;10.57;;;14.70;99.90;;;;;;5010738;28;22857;-73
2022/04/24 02:35:57;;;;;;;12.60;11.30;;;14.70;99.90;;;;;;5008395;28;20192;-73
2022/04/24 02:38:23;;;;;;;12.23;11.00;;;14.70;99.90;;;;;;5006411;28;20640;-73
2022/04/24 02:40:49;;;;;;;16.83;12.70;;;14.70;99.90;;;;;;5009672;28;20330;-72
2022/04/24 02:43:14;;;;;;;12.60;11.03;;;14.60;99.90;;;;;;5008855;28;20203;-74
2022/04/24 02:45:40;;;;;;;14.47;11.90;;;14.70;99.90;;;;;;5011288;28;20199;-74
2022/04/24 02:48:06;;;;;;;12.97;11.50;;;14.80;99.90;;;;;;5012090;28;20209;-73
2022/04/24 02:50:31;;;;;;;13.20;11.53;;;14.60;99.90;;;;;;5011681;28;20189;-71
2022/04/24 02:52:57;;;;;;;12.03;10.33;;;14.70;99.90;;;;;;5006009;28;20255;-74
2022/04/24 02:55:24;;;;;;;12.60;11.10;;;14.60;99.90;;;;;;5007424;28;20270;-73
2022/04/24 02:57:51;;;;;;;12.70;11.40;;;14.50;99.90;;;;;;5010419;28;20479;-72
2022/04/24 03:00:25;;;;;;;13.70;12.03;;;14.50;99.90;;;;;;5009427;28;20459;-72
2022/04/24 03:02:52;;;;;;;13.17;11.43;;;14.30;99.90;;;;;;5008707;28;20459;-71
2022/04/24 03:05:19;;;;;;;13.20;11.93;;;14.40;99.90;;;;;;5008115;28;21266;-74
2022/04/24 03:07:45;;;;;;;14.50;12.67;;;14.60;99.90;;;;;;5006771;28;20513;-74
2022/04/24 03:10:12;;;;;;;16.33;11.90;;;14.70;99.90;;;;;;5008560;28;20438;-73
2022/04/24 03:12:38;;;;;;;12.60;11.30;;;14.70;99.90;;;;;;5006374;28;20460;-74
2022/04/24 03:15:06;;;;;;;12.90;11.60;;;14.60;99.90;;;;;;5004219;28;20485;-72
2022/04/24 03:17:34;;;;;;;12.00;10.70;;;14.60;99.90;;;;;;5009729;28;20461;-74
2022/04/24 03:20:03;;;;;;;12.53;11.23;;;14.60;99.90;;;;;;5008233;28;20443;-72
2022/04/24 03:22:33;;;;;;;15.33;11.80;;;14.60;99.90;;;;;;5006336;28;20502;-72
2022/04/24 03:24:59;;;;;;;12.67;11.33;;;14.40;99.90;;;;;;5006011;28;20459;-72
2022/04/24 03:27:24;;;;;;;13.33;12.00;;;14.30;99.90;;;;;;5010134;28;20505;-72
2022/04/24 03:29:50;;;;;;;16.00;12.00;;;14.40;99.90;;;;;;5010198;28;20231;-72
2022/04/24 03:32:15;;;;;;;14.40;11.30;;;14.40;99.90;;;;;;5021640;28;20262;-72
2022/04/24 03:34:41;;;;;;;14.57;12.17;;;14.50;99.90;;;;;;5010516;28;20271;-72
2022/04/24 03:37:07;;;;;;;11.83;10.70;;;14.50;99.90;;;;;;5004528;28;20269;-71
2022/04/24 03:39:32;;;;;;;15.13;12.50;;;14.60;99.90;;;;;;5009441;28;20193;-71
2022/04/24 03:41:58;;;;;;;14.67;12.10;;;14.70;99.90;;;;;;5006892;28;20213;-72
2022/04/24 03:44:24;;;;;;;12.43;11.23;;;14.70;99.90;;;;;;5006406;28;20659;-72
2022/04/24 03:46:49;;;;;;;13.37;11.97;;;14.60;99.90;;;;;;5006302;28;21095;-71
2022/04/24 03:49:16;;;;;;;13.40;12.03;;;14.40;99.90;;;;;;5008492;28;20191;-72
2022/04/24 03:51:42;;;;;;;12.90;11.53;;;14.30;99.90;;;;;;5008608;28;20216;-73
2022/04/24 03:54:07;;;;;;;14.40;12.90;;;14.40;99.90;;;;;;5007794;28;20444;-74
2022/04/24 03:56:33;;;;;;;14.50;13.00;;;14.30;99.90;;;;;;5007959;28;20448;-73
2022/04/24 03:58:59;;;;;;;12.73;11.33;;;13.80;99.90;;;;;;5007709;28;20185;-71
2022/04/24 04:01:24;;;;;;;15.20;13.60;;;14.10;99.90;;;;;;5002184;28;20254;-73
2022/04/24 04:03:51;;;;;;;15.27;12.40;;;14.00;99.90;;;;;;5007662;28;20472;-71
2022/04/24 04:06:16;;;;;;;14.63;13.07;;;13.90;99.90;;;;;;5008532;28;20806;-71
2022/04/24 04:08:42;;;;;;;17.50;13.83;;;13.80;99.90;;;;;;5005826;28;20439;-71
2022/04/24 04:11:08;;;;;;;16.70;13.03;;;13.60;99.90;;;;;;5006419;28;20180;-71
2022/04/24 04:13:34;;;;;;;17.70;15.80;;;13.60;99.90;;;;;;5005838;28;20189;-73
2022/04/24 04:16:00;;;;;;;19.57;17.00;;;13.40;99.90;;;;;;5007159;28;20181;-71
2022/04/24 04:18:26;;;;;;;20.60;17.53;;;13.30;99.90;;;;;;5005145;28;20861;-73
2022/04/24 04:20:51;;;;;;;19.20;17.10;;;13.20;99.90;;;;;;5010658;28;20272;-71
2022/04/24 04:23:17;;;;;;;20.67;18.33;;;13.10;99.90;;;;;;5006340;28;20865;-73
2022/04/24 04:25:43;;;;;;;23.67;18.23;;;13.00;99.90;;;;;;5006951;28;20276;-73
2022/04/24 04:28:09;;;;;;;18.93;16.20;;;13.00;99.90;;;;;;5007816;28;20240;-73
2022/04/24 04:30:35;;;;;;;21.47;17.73;;;12.80;99.90;;;;;;5005752;28;20185;-73
2022/04/24 04:33:01;;;;;;;21.60;17.83;;;12.70;99.90;;;;;;5008613;28;20529;-72
2022/04/24 04:35:27;;;;;;;22.80;16.90;;;12.70;99.90;;;;;;5006218;28;20668;-74
2022/04/24 04:37:53;;;;;;;22.13;17.90;;;12.70;99.90;;;;;;5004703;28;20526;-71
2022/04/24 04:40:20;;;;;;;22.57;17.13;;;12.60;99.90;;;;;;5004034;28;20455;-72
2022/04/24 04:42:48;;;;;;;24.20;17.97;;;12.50;99.90;;;;;;5009637;28;20518;-72
2022/04/24 04:45:14;;;;;;;24.20;19.10;;;12.50;99.90;;;;;;5003941;28;20454;-71
2022/04/24 04:47:40;;;;;;;25.10;18.30;;;12.50;99.90;;;;;;5006251;28;20477;-71
2022/04/24 04:50:07;;;;;;;21.50;17.47;;;12.40;99.90;;;;;;5005064;28;20803;-72
2022/04/24 04:52:33;;;;;;;21.93;16.97;;;12.40;99.90;;;;;;5002985;28;21006;-73
2022/04/24 04:54:59;;;;;;;20.23;16.47;;;12.40;99.90;;;;;;5006554;28;20526;-72
2022/04/24 04:57:25;;;;;;;22.30;18.70;;;12.40;99.90;;;;;;5005820;28;20188;-71
2022/04/24 04:59:51;;;;;;;20.57;16.50;;;12.40;99.90;;;;;;5006007;28;20452;-72
2022/04/24 05:02:17;;;;;;;23.83;18.10;;;12.30;99.90;;;;;;5009578;28;20466;-72
2022/04/24 05:04:45;;;;;;;22.00;16.63;;;12.20;99.90;;;;;;5007092;28;20185;-73
2022/04/24 05:07:12;;;;;;;21.17;18.43;;;12.20;99.90;;;;;;5008213;28;20208;-72
2022/04/24 05:09:38;;;;;;;24.17;17.97;;;12.00;99.90;;;;;;5004626;28;20499;-72
2022/04/24 05:12:04;;;;;;;27.47;19.70;;;12.10;99.90;;;;;;5006621;28;20463;-73
2022/04/24 05:14:30;;;;;;;19.23;16.03;;;12.00;99.90;;;;;;5004379;28;21013;-72
2022/04/24 05:16:56;;;;;;;23.43;17.50;;;12.00;99.90;;;;;;5009976;28;20485;-72
2022/04/24 05:19:22;;;;;;;21.00;16.00;;;12.00;99.90;;;;;;5008908;28;20443;-73
2022/04/24 05:21:48;;;;;;;23.30;15.60;;;12.00;99.90;;;;;;5012674;28;20578;-72
2022/04/24 05:24:14;;;;;;;16.77;12.43;;;11.90;99.90;;;;;;5014618;28;20542;-72
2022/04/24 05:26:40;;;;;;;14.60;11.27;;;11.80;99.90;;;;;;5012355;28;20703;-71
2022/04/24 05:29:07;;;;;;;12.17;10.00;;;11.60;99.90;;;;;;5014917;28;20711;-73
2022/04/24 05:31:33;;;;;;;14.13;10.40;;;11.60;99.90;;;;;;5013059;28;20455;-71
2022/04/24 05:33:59;;;;;;;13.27;9.47;;;11.60;99.90;;;;;;5009343;28;20863;-71
2022/04/24 05:36:24;;;;;;;10.20;8.47;;;11.60;99.90;;;;;;5013163;28;20440;-74
2022/04/24 05:38:50;;;;;;;10.47;8.10;;;11.60;99.90;;;;;;5011003;28;20652;-72
2022/04/24 05:41:20;;;;;;;11.70;8.80;;;11.50;99.90;;;;;;5006939;28;20197;-72
2022/04/24 05:43:46;;;;;;;12.50;10.50;;;11.40;99.90;;;;;;5016750;28;20172;-71
2022/04/24 05:46:11;;;;;;;11.30;9.60;;;11.40;99.90;;;;;;5012154;28;20439;-71
2022/04/24 05:48:37;;;;;;;14.13;10.90;;;11.40;99.90;;;;;;5008085;28;20203;-72
2022/04/24 05:51:02;;;;;;;14.63;11.10;;;11.50;99.90;;;;;;5010854;28;20196;-72
2022/04/24 05:53:28;;;;;;;12.60;10.07;;;11.50;99.90;;;;;;5010318;28;20215;-72
2022/04/24 05:55:54;;;;;;;10.87;8.77;;;11.50;99.90;;;;;;5010808;28;20179;-73
2022/04/24 05:58:19;;;;;;;10.03;8.10;;;11.50;99.90;;;;;;5014515;28;20177;-73
2022/04/24 06:00:45;;;;;;;10.77;7.87;;;11.60;99.90;;;;;;5013603;28;20185;-72
2022/04/24 06:03:10;;;;;;;8.17;6.87;;;11.50;99.90;;;;;;5008013;28;20201;-72
2022/04/24 06:05:36;;;;;;;9.50;8.03;;;11.50;99.90;;;;;;5007840;28;20868;-73
2022/04/24 06:08:02;;;;;;;10.53;7.70;;;11.40;99.90;;;;;;5006226;28;20295;-71
2022/04/24 06:10:28;;;;;;;10.30;8.80;;;11.30;99.90;;;;;;5006641;28;20534;-72
2022/04/24 06:12:55;;;;;;;9.50;6.70;;;11.20;99.90;;;;;;5009953;28;20444;-72
2022/04/24 06:15:24;;;;;;;9.97;7.00;;;11.20;99.90;;;;;;5007603;28;20182;-71
2022/04/24 06:17:54;;;;;;;8.10;5.80;;;11.00;99.90;;;;;;5007550;28;20440;-72
2022/04/24 06:20:22;;;;;;;7.00;5.10;;;11.10;99.90;;;;;;5007291;28;20518;-73
2022/04/24 06:23:06;;;;;;;6.43;3.10;;;11.00;99.90;;;;;;5010854;28;21000;-71
2022/04/24 06:25:33;;;;;;;4.60;2.90;;;10.90;99.90;;;;;;5005763;28;20436;-72
2022/04/24 06:28:01;;;;;;;6.60;2.80;;;11.00;99.90;;;;;;5007463;28;21241;-73
2022/04/24 06:30:28;;;;;;;2.37;1.90;;;11.00;99.90;;;;;;5006179;28;20443;-72
2022/04/24 06:32:55;;;;;;;3.30;1.70;;;10.90;99.90;;;;;;5009799;28;20447;-72
2022/04/24 06:35:21;;;;;;;3.03;1.83;;;10.90;99.90;;;;;;5009987;28;20427;-72
2022/04/24 06:37:49;;;;;;;2.20;1.70;;;10.90;99.90;;;;;;5006166;28;20450;-73
2022/04/24 06:40:16;;;;;;;2.47;1.87;;;10.90;99.90;;;;;;5005998;28;20505;-74
2022/04/24 06:42:55;;;;;;;2.20;1.87;;;10.90;99.90;;;;;;5005392;28;21159;-73
2022/04/24 06:45:32;;;;;;;2.10;1.50;;;10.90;99.90;;;;;;5005669;28;20449;-72
2022/04/24 06:48:00;;;;;;;1.93;1.50;;;11.00;99.90;;;;;;5008735;28;20468;-72
2022/04/24 06:50:27;;;;;;;2.07;1.40;;;11.00;99.90;;;;;;5010295;28;20442;-71
2022/04/24 06:52:56;;;;;;;2.30;1.47;;;11.00;99.90;;;;;;5006201;28;20865;-72
2022/04/24 06:55:21;;;;;;;1.77;1.23;;;10.90;99.90;;;;;;5006362;28;21201;-72
2022/04/24 06:57:48;;;;;;;2.87;1.80;;;11.00;99.90;;;;;;5005614;28;20443;-73
2022/04/24 07:00:14;;;;;;;1.50;1.30;;;10.90;99.90;;;;;;5005545;28;20271;-73
2022/04/24 07:02:40;;;;;;;2.80;1.40;;;10.70;99.90;;;;;;5012040;28;20939;-73
2022/04/24 07:05:06;;;;;;;1.70;1.23;;;10.70;99.90;;;;;;5002824;28;20558;-74
2022/04/24 07:07:31;;;;;;;1.67;1.47;;;10.60;99.90;;;;;;5011453;28;20299;-74
2022/04/24 07:09:57;;;;;;;1.87;1.40;;;10.60;99.90;;;;;;5013212;28;20427;-73
2022/04/24 07:12:22;;;;;;;1.60;1.27;;;10.60;99.90;;;;;;5016866;28;20205;-75
2022/04/24 07:14:48;;;;;;;2.10;1.47;;;10.60;99.90;;;;;;5011071;28;20179;-74
2022/04/24 07:17:14;;;;;;;2.30;1.70;;;10.60;99.90;;;;;;5010838;28;20700;-72
2022/04/24 07:19:39;;;;;;;2.97;1.37;;;10.80;99.90;;;;;;4999089;28;20271;-73
2022/04/24 07:22:05;;;;;;;1.90;1.40;;;10.80;99.90;;;;;;5007761;28;20744;-73
2022/04/24 07:24:30;;;;;;;3.00;1.53;;;10.80;99.90;;;;;;5007812;28;20259;-72
2022/04/24 07:26:56;;;;;;;2.37;1.60;;;10.70;99.90;;;;;;5005221;28;20209;-72
2022/04/24 07:29:21;;;;;;;1.90;1.70;;;10.70;99.90;;;;;;5009901;28;20207;-73
2022/04/24 07:31:47;;;;;;;2.40;2.20;;;10.70;99.90;;;;;;5008610;28;20284;-74
2022/04/24 07:34:13;;;;;;;2.33;1.87;;;10.80;99.90;;;;;;5003621;28;20269;-73
2022/04/24 07:36:38;;;;;;;2.93;1.90;;;10.80;99.90;;;;;;5008807;28;20188;-74
2022/04/24 07:39:04;;;;;;;2.30;1.93;;;10.70;99.90;;;;;;5004724;28;20195;-74
2022/04/24 07:41:29;;;;;;;4.10;2.53;;;10.70;99.90;;;;;;5001790;28;20242;-72
2022/04/24 07:43:55;;;;;;;3.10;2.37;;;10.90;99.90;;;;;;5005377;28;20181;-71
2022/04/24 07:46:21;;;;;;;3.70;3.40;;;10.90;99.90;;;;;;5004454;28;20187;-71
2022/04/24 07:48:46;;;;;;;2.90;2.60;;;11.00;99.90;;;;;;5001307;28;20186;-72
2022/04/24 07:51:12;;;;;;;3.20;2.30;;;11.00;99.90;;;;;;5005066;28;20798;-72
2022/04/24 07:53:41;;;;;;;4.10;2.03;;;11.10;99.90;;;;;;5004635;28;20253;-74
2022/04/24 07:56:07;;;;;;;8.20;2.70;;;11.20;99.90;;;;;;4999370;28;20272;-71
2022/04/24 07:58:32;;;;;;;3.00;2.07;;;11.20;99.90;;;;;;4998415;28;20443;-71
2022/04/24 08:01:03;;;;;;;3.67;2.47;;;11.20;99.90;;;;;;5072961;27;20315;-72
2022/04/24 08:03:29;;;;;;;2.33;2.13;;;11.30;99.90;;;;;;5035751;28;20476;-72
2022/04/24 08:05:54;;;;;;;2.20;1.70;;;11.30;99.90;;;;;;5029576;28;20314;-73
2022/04/24 08:08:24;;;;;;;2.87;2.23;;;11.30;99.90;;;;;;5037189;28;22322;-72
2022/04/24 08:10:51;;;;;;;3.00;2.40;;;11.30;99.90;;;;;;5043247;28;20191;-72
2022/04/24 08:13:18;;;;;;;3.37;2.00;;;11.30;99.90;;;;;;5041506;28;21758;-73
2022/04/24 08:15:44;;;;;;;2.63;2.30;;;11.40;99.90;;;;;;5061830;28;20696;-72
2022/04/24 08:18:10;;;;;;;2.43;2.10;;;11.40;99.90;;;;;;5041968;28;20478;-72
2022/04/24 08:20:37;;;;;;;2.50;2.13;;;11.40;99.90;;;;;;5042507;28;20458;-73
2022/04/24 08:23:04;;;;;;;3.23;2.03;;;11.40;99.90;;;;;;5043190;28;20570;-74
2022/04/24 08:25:35;;;;;;;2.43;2.23;;;11.40;99.90;;;;;;5049747;28;20422;-73
2022/04/24 08:28:05;;;;;;;3.00;2.30;;;11.30;99.90;;;;;;5047162;28;20433;-74
2022/04/24 08:30:30;;;;;;;2.83;1.97;;;11.50;99.90;;;;;;5044040;28;20953;-73
2022/04/24 08:32:56;;;;;;;2.67;2.10;;;11.50;99.90;;;;;;5048186;28;20461;-73
2022/04/24 08:35:22;;;;;;;4.50;3.50;;;11.40;99.90;;;;;;5045604;28;20259;-74
2022/04/24 08:37:48;;;;;;;2.27;2.07;;;11.30;99.90;;;;;;5043669;28;20215;-72
2022/04/24 08:40:15;;;;;;;2.87;1.90;;;11.30;99.90;;;;;;5043611;28;20210;-72
2022/04/24 08:42:42;;;;;;;2.07;1.67;;;11.30;99.90;;;;;;5047919;28;20491;-72
2022/04/24 08:45:13;;;;;;;3.10;2.27;;;11.20;99.90;;;;;;5047455;28;20425;-73
2022/04/24 08:47:39;;;;;;;2.47;1.90;;;11.10;99.90;;;;;;5048225;28;20426;-73
2022/04/24 08:50:05;;;;;;;1.90;1.63;;;11.10;99.90;;;;;;5048814;28;20445;-73
2022/04/24 08:52:31;;;;;;;4.03;1.67;;;11.00;99.90;;;;;;5050730;28;20488;-73
2022/04/24 08:54:59;;;;;;;7.43;1.70;;;11.00;99.90;;;;;;5044039;28;20953;-74
2022/04/24 08:57:30;;;;;;;2.83;1.93;;;11.00;99.90;;;;;;5040260;28;20437;-73
2022/04/24 09:00:00;;;;;;;1.97;1.43;;;11.00;99.90;;;;;;5062355;28;20528;-73
2022/04/24 09:02:27;;;;;;;2.70;1.70;;;10.90;99.90;;;;;;5044066;28;20471;-73
2022/04/24 09:04:53;;;;;;;3.17;1.70;;;10.90;99.90;;;;;;5051470;28;21122;-74
2022/04/24 09:07:20;;;;;;;2.07;1.63;;;10.80;99.90;;;;;;5044582;28;20447;-73
2022/04/24 09:09:51;;;;;;;1.77;1.50;;;10.80;99.90;;;;;;5065197;28;20473;-72
2022/04/24 09:12:18;;;;;;;2.07;1.80;;;10.70;99.90;;;;;;5028841;28;20458;-72
2022/04/24 09:14:57;;;;;;;1.90;1.50;;;10.70;99.90;;;;;;5033081;28;20438;-73
2022/04/24 09:17:28;;;;;;;3.03;1.80;;;10.80;99.90;;;;;;5035027;28;20873;-73
2022/04/24 09:19:55;;;;;;;1.90;1.40;;;10.90;99.90;;;;;;5049800;28;20562;-73
2022/04/24 09:22:23;;;;;;;2.50;2.00;;;10.90;99.90;;;;;;5034548;28;20596;-73
2022/04/24 09:24:55;;;;;;;2.80;1.93;;;11.00;99.90;;;;;;5034737;28;20436;-73
2022/04/24 09:27:30;;;;;;;2.10;1.60;;;11.00;99.90;;;;;;5036604;28;20434;-71
2022/04/24 09:30:02;;;;;;;2.00;1.50;;;11.10;99.90;;;;;;5033212;28;20447;-74
2022/04/24 09:32:30;;;;;;;4.47;1.50;;;10.90;99.90;;;;;;5034172;28;20445;-73
2022/04/24 09:34:57;;;;;;;2.37;1.63;;;10.80;99.90;;;;;;5051765;28;20441;-72
2022/04/24 09:37:24;;;;;;;2.20;1.60;;;10.80;99.90;;;;;;5036917;28;22900;-73
2022/04/24 09:39:50;;;;;;;2.20;1.80;;;10.90;99.90;;;;;;5035113;28;20514;-74
2022/04/24 09:42:18;;;;;;;2.77;1.80;;;10.80;99.90;;;;;;5037079;28;20462;-73
2022/04/24 09:44:48;;;;;;;2.20;1.70;;;10.90;99.90;;;;;;5036326;28;20525;-72
2022/04/24 09:47:17;;;;;;;2.53;1.60;;;10.90;99.90;;;;;;5035269;28;20790;-73
2022/04/24 09:49:50;;;;;;;2.10;1.67;;;10.90;99.90;;;;;;5036094;28;20601;-73
2022/04/24 09:52:24;;;;;;;1.70;1.30;;;10.90;99.90;;;;;;5034394;28;20577;-73
2022/04/24 09:54:51;;;;;;;2.27;1.47;;;10.90;99.90;;;;;;5034544;28;20941;-73
2022/04/24 09:57:18;;;;;;;1.57;1.30;;;10.90;99.90;;;;;;5049384;28;20444;-73
2022/04/24 09:59:46;;;;;;;3.17;1.50;;;10.90;99.90;;;;;;5036694;28;20554;-74
2022/04/24 10:02:17;;;;;;;2.60;1.60;;;10.70;99.90;;;;;;5032284;28;20450;-72
2022/04/24 10:04:45;;;;;;;2.07;1.70;;;10.80;99.90;;;;;;5035690;28;20446;-73
2022/04/24 10:07:13;;;;;;;3.40;1.97;;;10.70;99.90;;;;;;5031065;28;20444;-72
2022/04/24 10:09:42;;;;;;;2.17;1.60;;;10.70;99.90;;;;;;5032402;28;20449;-74
2022/04/24 10:12:19;;;;;;;2.90;1.60;;;10.60;99.90;;;;;;5029204;28;20869;-73
2022/04/24 10:14:58;;;;;;;5.40;1.90;;;10.70;99.90;;;;;;5032132;28;20422;-72
2022/04/24 10:17:55;;;;;;;7.43;1.50;;;10.80;99.90;;;;;;5030581;28;20472;-73
2022/04/24 10:20:51;;;;;;;2.70;2.00;;;10.80;99.90;;;;;;5043751;28;20528;-71
2022/04/24 10:23:27;;;;;;;2.60;1.90;;;10.80;99.90;;;;;;5031432;28;20443;-71
2022/04/24 10:25:53;;;;;;;2.80;1.80;;;10.80;99.90;;;;;;5030568;28;20438;-72
2022/04/24 10:28:20;;;;;;;7.83;1.70;;;10.90;99.90;;;;;;5031530;28;20584;-75
2022/04/24 10:31:00;;;;;;;3.40;2.47;;;10.90;99.90;;;;;;5027159;28;20191;-76
2022/04/24 10:33:37;;;;;;;2.20;1.97;;;10.90;99.90;;;;;;5031944;28;20504;-75
2022/04/24 10:36:05;;;;;;;2.20;1.90;;;10.80;99.90;;;;;;5034578;28;20434;-74
2022/04/24 10:38:44;;;;;;;2.40;1.90;;;10.80;99.90;;;;;;5030186;28;20432;-73
2022/04/24 10:41:24;;;;;;;3.67;1.93;;;10.90;99.90;;;;;;5025329;28;20953;-74
2022/04/24 10:43:56;;;;;;;2.63;2.43;;;10.80;99.90;;;;;;5031286;28;20438;-73
2022/04/24 10:46:28;;;;;;;2.23;1.93;;;10.90;99.90;;;;;;5031068;28;20788;-74
2022/04/24 10:49:09;;;;;;;2.17;1.83;;;10.90;99.90;;;;;;5025270;28;20447;-77
2022/04/24 10:51:36;;;;;;;2.53;2.00;;;10.90;99.90;;;;;;5036238;28;20548;-75
2022/04/24 10:54:09;;;;;;;2.77;2.10;;;10.90;99.90;;;;;;5031703;28;23093;-73
2022/04/24 10:56:36;;;;;;;3.87;2.20;;;10.90;99.90;;;;;;5027458;28;20439;-73
2022/04/24 10:59:10;;;;;;;2.77;2.43;;;10.90;99.90;;;;;;5025834;28;20473;-73
2022/04/24 11:01:36;;;;;;;2.27;2.07;;;10.80;99.90;;;;;;5035487;28;20447;-75
2022/04/24 11:04:06;;;;;;;6.00;2.20;;;10.80;99.90;;;;;;5031616;28;20435;-75
2022/04/24 11:06:33;;;;;;;2.20;2.00;;;10.80;99.90;;;;;;5033075;28;20430;-74
2022/04/24 11:09:09;;;;;;;2.10;1.80;;;10.90;99.90;;;;;;5035093;28;20449;-75
2022/04/24 11:12:03;;;;;;;2.50;1.90;;;10.80;99.90;;;;;;5051216;28;20450;-75
2022/04/24 11:14:30;;;;;;;5.50;2.07;;;10.80;99.90;;;;;;5035396;28;20469;-74
2022/04/24 11:16:57;;;;;;;3.47;2.33;;;10.80;99.90;;;;;;5026805;28;20842;-76
2022/04/24 11:19:35;;;;;;;2.70;1.97;;;10.90;99.90;;;;;;5029017;28;21158;-74
2022/04/24 11:22:05;;;;;;;2.63;2.13;;;10.90;99.90;;;;;;5024645;28;20455;-72
2022/04/24 11:24:33;;;;;;;2.13;1.93;;;10.90;99.90;;;;;;5031455;28;20459;-70
2022/04/24 11:27:03;;;;;;;3.93;2.40;;;10.90;99.90;;;;;;5025432;28;20426;-73
2022/04/24 11:29:29;;;;;;;2.23;1.90;;;10.90;99.90;;;;;;5025339;28;22051;-71
2022/04/24 11:31:55;;;;;;;3.03;2.10;;;11.00;99.90;;;;;;5025460;28;20466;-72
2022/04/24 11:34:22;;;;;;;2.20;1.80;;;11.00;99.90;;;;;;5042406;28;20301;-71
2022/04/24 11:36:50;;;;;;;2.50;1.70;;;10.90;99.90;;;;;;5022843;28;21121;-72
2022/04/24 11:39:17;;;;;;;2.20;1.87;;;10.80;99.90;;;;;;5026234;28;20469;-71
2022/04/24 11:41:46;;;;;;;2.00;1.80;;;11.00;99.90;;;;;;5030446;28;20454;-72
2022/04/24 11:52:36;;;;;;;3.60;2.30;;;11.20;99.90;;;;;;5026864;28;21061;-72
2022/04/24 11:55:14;;;;;;;2.13;1.90;;;11.10;99.90;;;;;;5028709;28;20446;-71
2022/04/24 11:57:40;;;;;;;3.13;1.90;;;11.10;99.90;;;;;;5021145;28;20975;-71
2022/04/24 12:00:09;;;;;;;2.37;1.90;;;11.10;99.90;;;;;;5024018;28;20470;-71
2022/04/24 12:02:35;;;;;;;3.03;2.00;;;11.10;99.90;;;;;;5023805;28;20293;-72
2022/04/24 12:05:08;;;;;;;2.20;2.00;;;11.10;99.90;;;;;;5027052;28;20438;-71
2022/04/24 12:07:34;;;;;;;2.23;1.70;;;11.10;99.90;;;;;;5030581;28;20979;-72
2022/04/24 12:10:10;;;;;;;2.00;1.70;;;11.20;99.90;;;;;;5031224;28;20430;-71
2022/04/24 12:12:47;;;;;;;3.53;1.80;;;11.30;99.90;;;;;;5018306;28;20238;-71
2022/04/24 12:15:21;;;;;;;1.93;1.67;;;11.30;99.90;;;;;;5028125;28;20441;-72
2022/04/24 12:17:51;;;;;;;3.07;1.80;;;11.30;99.90;;;;;;5019983;28;20435;-72
2022/04/24 12:20:17;;;;;;;2.90;2.20;;;11.30;99.90;;;;;;5035869;28;20474;-72
2022/04/24 12:22:43;;;;;;;3.00;2.23;;;11.20;99.90;;;;;;5019780;28;20543;-72
2022/04/24 12:25:11;;;;;;;2.83;2.10;;;11.20;99.90;;;;;;5037300;28;20941;-71
2022/04/24 12:27:37;;;;;;;1.87;1.67;;;11.20;99.90;;;;;;5025042;28;20442;-72
2022/04/24 12:30:05;;;;;;;2.60;2.10;;;11.20;99.90;;;;;;5023379;28;20453;-72
2022/04/24 12:32:30;;;;;;;2.07;1.60;;;11.20;99.90;;;;;;5031457;28;20461;-72
2022/04/24 12:34:57;;;;;;;2.80;2.00;;;11.10;99.90;;;;;;5023828;28;20451;-72
2022/04/24 12:37:31;;;;;;;2.60;2.30;;;11.10;99.90;;;;;;5028950;28;20188;-72
2022/04/24 12:40:01;;;;;;;2.27;2.07;;;11.10;99.90;;;;;;5024320;28;20458;-73
2022/04/24 12:42:27;;;;;;;3.27;2.10;;;11.20;99.90;;;;;;5029991;28;20515;-73
2022/04/24 12:44:53;;;;;;;3.87;2.40;;;11.20;99.90;;;;;;5028390;28;20446;-73
2022/04/24 12:47:20;;;;;;;4.07;2.60;;;11.20;99.90;;;;;;5027977;28;21124;-71
2022/04/24 12:49:49;;;;;;;5.80;2.83;;;11.30;99.90;;;;;;5030588;28;20449;-71